Wabash, Nebraska
Current Conditions -  °F | °C
As of 12:35 PM on Wednesday 26 Nov 2014 (Local Time) from KPMV Reporting Station
Overcast Overcast  
Wind Chill: 18°   Ceiling: 1700
Heat Index: 31°   Visibility: 10mi
Dew Point: 25°   Wind: 25mph
Humidity: 76%   Direction: 330°NNW
Pressure: 30.07"   Gusts: 33mph
Location:  40.9139°N, 96.2935°W
Report Text: KPMV 261835Z AUTO 33022G29KT 10SM OVC017 00/M04 A3007 RMK AO2 T10031041
Loading
Personal Weather Stations






























Interactive Weather Map New forecast layout! Learn more

10-Day Weather Forecast

Advertisements
Track Severe Weather on mobile